createdAt,value
2017-02-14T00:00:40.933Z,1.24
2017-02-14T00:01:40.906Z,1.11
2017-02-14T00:02:40.875Z,1.13
2017-02-14T00:03:40.860Z,1.18
2017-02-14T00:04:40.820Z,1.31
2017-02-14T00:05:40.839Z,1.2
2017-02-14T00:06:40.750Z,1.34
2017-02-14T00:07:40.739Z,1.34
2017-02-14T00:08:40.732Z,1.31
2017-02-14T00:09:40.679Z,1.31
2017-02-14T00:10:40.325Z,1.26
2017-02-14T00:11:40.622Z,1.26
2017-02-14T00:12:40.599Z,1.25
2017-02-14T00:13:40.577Z,1.31
2017-02-14T00:14:40.153Z,1.34
2017-02-14T00:15:40.571Z,1.31
2017-02-14T00:16:40.110Z,1.31
2017-02-14T00:17:40.087Z,1.25
2017-02-14T00:18:40.449Z,1.17
2017-02-14T00:19:40.436Z,1.18
2017-02-14T00:20:40.425Z,1.18
2017-02-14T00:21:40.352Z,1.14
2017-02-14T00:22:40.340Z,1.2
2017-02-14T00:23:40.290Z,1.14
2017-02-14T00:24:40.277Z,1.18
2017-02-14T00:25:40.236Z,1.21
2017-02-14T00:26:40.213Z,1.21
2017-02-14T00:27:40.185Z,1.18
2017-02-14T00:28:40.178Z,1.21
2017-02-14T00:29:40.139Z,1.16
2017-02-14T00:30:40.095Z,1.18
2017-02-14T00:31:40.370Z,1.11
2017-02-14T00:32:39.660Z,1.17
2017-02-14T00:33:40.006Z,1.17
2017-02-14T00:34:39.981Z,1.02
2017-02-14T00:35:39.972Z,1.06
2017-02-14T00:36:40.148Z,1.11
2017-02-14T00:37:39.906Z,1.07
2017-02-14T00:38:39.491Z,1.16
2017-02-14T00:39:39.852Z,1.08
2017-02-14T00:40:39.823Z,1.31
2017-02-14T00:41:39.411Z,1.35
2017-02-14T00:42:39.772Z,1.35
2017-02-14T00:43:39.369Z,1.43
2017-02-14T00:44:39.767Z,1.36
2017-02-14T00:45:39.687Z,1.29
2017-02-14T00:46:39.665Z,1.29
2017-02-14T00:47:39.258Z,1.29
2017-02-14T00:48:39.598Z,1.28
2017-02-14T00:49:39.567Z,1.25
2017-02-14T00:50:39.558Z,1.21
2017-02-14T00:51:39.586Z,1.17
2017-02-14T00:52:39.498Z,1.2
2017-02-14T00:53:39.464Z,1.14
2017-02-14T00:54:38.680Z,1.18
2017-02-14T00:55:39.421Z,1.17
2017-02-14T00:56:39.040Z,1.13
2017-02-14T00:57:39.357Z,1.13
2017-02-14T00:58:39.383Z,1.18
2017-02-14T00:59:38.921Z,1.2
2017-02-14T01:00:39.272Z,1.28
2017-02-14T01:01:39.248Z,1.29
2017-02-14T01:02:38.850Z,1.34
2017-02-14T01:03:39.185Z,1.29
2017-02-14T01:04:39.174Z,1.29
2017-02-14T01:05:38.749Z,1.35
2017-02-14T01:06:38.720Z,1.44
2017-02-14T01:07:39.072Z,1.35
2017-02-14T01:08:39.061Z,1.5
2017-02-14T01:09:38.266Z,1.35
2017-02-14T01:10:38.998Z,1.39
2017-02-14T01:11:39.019Z,1.36
2017-02-14T01:12:38.561Z,1.36
2017-02-14T01:13:38.908Z,1.38
2017-02-14T01:14:38.884Z,1.32
2017-02-14T01:15:38.852Z,1.42
2017-02-14T01:16:38.119Z,1.36
2017-02-14T01:17:38.797Z,1.39
2017-02-14T01:18:38.437Z,1.36
2017-02-14T01:19:38.744Z,1.38
2017-02-14T01:20:38.721Z,1.31
2017-02-14T01:21:38.701Z,1.31
2017-02-14T01:22:38.293Z,1.28
2017-02-14T01:23:38.637Z,1.32
2017-02-14T01:24:38.631Z,1.28
2017-02-14T01:25:38.591Z,1.28
2017-02-14T01:26:38.549Z,1.21
2017-02-14T01:27:38.535Z,1.24
2017-02-14T01:28:38.533Z,1.2
2017-02-14T01:29:38.104Z,1.11
2017-02-14T01:30:38.062Z,1.1
2017-02-14T01:31:38.413Z,1.11
2017-02-14T01:32:38.439Z,1.14
2017-02-14T01:33:37.982Z,1.16
2017-02-14T01:34:38.328Z,1.18
2017-02-14T01:35:38.302Z,1.16
2017-02-14T01:36:38.271Z,1.13
2017-02-14T01:37:38.245Z,1.16
2017-02-14T01:38:38.227Z,1.17
2017-02-14T01:39:38.210Z,1.2
2017-02-14T01:40:38.181Z,1.17
2017-02-14T01:41:37.777Z,1.2
2017-02-14T01:42:38.156Z,1.1
2017-02-14T01:43:37.698Z,1.17
2017-02-14T01:44:38.064Z,1.11
2017-02-14T01:45:37.261Z,1.06
2017-02-14T01:46:37.631Z,1.07
2017-02-14T01:47:37.955Z,1.1
2017-02-14T01:48:37.947Z,1
2017-02-14T01:49:37.528Z,1.04
2017-02-14T01:50:37.509Z,1.04
2017-02-14T01:51:37.867Z,1.04
2017-02-14T01:52:37.881Z,1.06
2017-02-14T01:53:37.416Z,0.99
2017-02-14T01:54:37.775Z,0.98
2017-02-14T01:55:37.809Z,0.95
2017-02-14T01:56:37.724Z,0.98
2017-02-14T01:57:37.690Z,0.98
2017-02-14T01:58:37.687Z,0.9
2017-02-14T01:59:37.632Z,0.95
2017-02-14T02:00:37.608Z,0.81
2017-02-14T02:01:37.578Z,0.86
2017-02-14T02:02:37.552Z,0.93
2017-02-14T02:03:37.543Z,0.88
2017-02-14T02:04:36.782Z,0.92
2017-02-14T02:05:36.698Z,0.92
2017-02-14T02:06:37.445Z,0.86
2017-02-14T02:07:37.019Z,0.88
2017-02-14T02:08:37.381Z,0.92
2017-02-14T02:09:37.353Z,0.9
2017-02-14T02:10:37.326Z,0.89
2017-02-14T02:11:36.927Z,0.84
2017-02-14T02:12:37.268Z,0.86
2017-02-14T02:13:37.247Z,0.84
2017-02-14T02:14:37.245Z,0.8
2017-02-14T02:15:37.197Z,0.86
2017-02-14T02:16:37.165Z,0.86
2017-02-14T02:17:37.135Z,0.77
2017-02-14T02:18:37.120Z,0.75
2017-02-14T02:19:37.094Z,0.74
2017-02-14T02:20:36.668Z,0.78
2017-02-14T02:21:37.024Z,0.81
2017-02-14T02:22:36.615Z,0.7
2017-02-14T02:23:36.965Z,0.78
2017-02-14T02:24:36.944Z,0.77
2017-02-14T02:25:36.524Z,0.8
2017-02-14T02:26:36.902Z,0.74
2017-02-14T02:27:36.863Z,0.84
2017-02-14T02:28:36.841Z,0.74
2017-02-14T02:29:36.856Z,0.82
2017-02-14T02:30:36.763Z,0.71
2017-02-14T02:31:36.750Z,0.82
2017-02-14T02:32:36.380Z,0.74
2017-02-14T02:33:36.690Z,0.7
2017-02-14T02:34:36.661Z,0.81
2017-02-14T02:35:36.633Z,0.71
2017-02-14T02:36:35.842Z,0.78
2017-02-14T02:37:36.584Z,0.72
2017-02-14T02:38:36.177Z,0.78
2017-02-14T02:39:36.527Z,0.64
2017-02-14T02:40:36.494Z,0.75
2017-02-14T02:41:36.475Z,0.7
2017-02-14T02:42:36.432Z,0.68
2017-02-14T02:43:36.077Z,0.63
2017-02-14T02:44:36.009Z,0.64
2017-02-14T02:45:35.975Z,0.74
2017-02-14T02:46:36.365Z,0.77
2017-02-14T02:47:36.306Z,0.64
2017-02-14T02:48:36.298Z,0.82
2017-02-14T02:49:36.257Z,0.82
2017-02-14T02:50:36.460Z,0.75
2017-02-14T02:51:36.191Z,0.84
2017-02-14T02:52:36.177Z,0.86
2017-02-14T02:53:35.379Z,0.86
2017-02-14T02:54:35.760Z,0.99
2017-02-14T02:55:36.078Z,1.06
2017-02-14T02:56:36.051Z,1.08
2017-02-14T02:57:36.018Z,1.08
2017-02-14T02:58:36.005Z,1.17
2017-02-14T02:59:35.584Z,1.2
2017-02-14T03:00:35.931Z,1.17
2017-02-14T03:01:35.908Z,1.31
2017-02-14T03:02:35.875Z,1.36
2017-02-14T03:03:35.467Z,1.39
2017-02-14T03:04:35.825Z,1.38
2017-02-14T03:05:35.425Z,1.5
2017-02-14T03:06:35.782Z,1.39
2017-02-14T03:07:35.360Z,1.54
2017-02-14T03:08:35.729Z,1.46
2017-02-14T03:09:35.690Z,1.6
2017-02-14T03:10:35.325Z,1.54
2017-02-14T03:11:35.279Z,1.6
2017-02-14T03:12:35.601Z,1.57
2017-02-14T03:13:35.617Z,1.57
2017-02-14T03:14:34.774Z,1.61
2017-02-14T03:15:35.515Z,1.57
2017-02-14T03:16:35.516Z,1.6
2017-02-14T03:17:35.474Z,1.56
2017-02-14T03:18:35.455Z,1.56
2017-02-14T03:19:35.401Z,1.65
2017-02-14T03:20:35.381Z,1.6
2017-02-14T03:21:35.362Z,1.6
2017-02-14T03:22:35.328Z,1.56
2017-02-14T03:23:35.309Z,1.57
2017-02-14T03:24:34.880Z,1.56
2017-02-14T03:25:35.235Z,1.46
2017-02-14T03:26:35.217Z,1.53
2017-02-14T03:27:35.264Z,1.63
2017-02-14T03:28:35.158Z,1.61
2017-02-14T03:29:34.752Z,1.57
2017-02-14T03:30:35.113Z,1.52
2017-02-14T03:31:35.083Z,1.61
2017-02-14T03:32:35.105Z,1.57
2017-02-14T03:33:34.638Z,1.61
2017-02-14T03:34:35.012Z,1.56
2017-02-14T03:35:34.964Z,1.6
2017-02-14T03:36:34.939Z,1.57
2017-02-14T03:37:34.910Z,1.57
2017-02-14T03:38:34.929Z,1.5
2017-02-14T03:39:34.475Z,1.49
2017-02-14T03:40:34.836Z,1.6
2017-02-14T03:41:34.046Z,1.5
2017-02-14T03:42:34.767Z,1.63
2017-02-14T03:43:34.776Z,1.54
2017-02-14T03:44:34.709Z,1.42
2017-02-14T03:45:34.686Z,1.42
2017-02-14T03:46:34.671Z,1.46
2017-02-14T03:47:34.655Z,1.47
2017-02-14T03:48:34.601Z,1.38
2017-02-14T03:49:34.579Z,1.38
2017-02-14T03:50:34.564Z,1.35
2017-02-14T03:51:34.522Z,1.35
2017-02-14T03:52:34.507Z,1.35
2017-02-14T03:53:34.494Z,1.36
2017-02-14T03:54:34.493Z,1.32
2017-02-14T03:55:34.409Z,1.36
2017-02-14T03:56:34.389Z,1.34
2017-02-14T03:57:34.357Z,1.38
2017-02-14T03:58:33.965Z,1.36
2017-02-14T03:59:34.300Z,1.35
2017-02-14T04:00:33.894Z,1.38
2017-02-14T04:01:34.307Z,1.35
2017-02-14T04:02:34.212Z,1.42
2017-02-14T04:03:34.203Z,1.43
2017-02-14T04:04:34.185Z,1.46
2017-02-14T04:05:33.754Z,1.47
2017-02-14T04:06:34.103Z,1.52
2017-02-14T04:07:33.711Z,1.5
2017-02-14T04:08:33.664Z,1.47
2017-02-14T04:09:33.654Z,1.54
2017-02-14T04:10:33.990Z,1.49
2017-02-14T04:11:33.998Z,1.44
2017-02-14T04:12:33.563Z,1.49
2017-02-14T04:13:33.919Z,1.54
2017-02-14T04:14:33.501Z,1.5
2017-02-14T04:15:33.861Z,1.43
2017-02-14T04:16:33.463Z,1.47
2017-02-14T04:17:33.431Z,1.47
2017-02-14T04:18:33.768Z,1.49
2017-02-14T04:19:33.750Z,1.44
2017-02-14T04:20:33.721Z,1.49
2017-02-14T04:21:33.710Z,1.42
2017-02-14T04:22:33.278Z,1.39
2017-02-14T04:23:33.646Z,1.46
2017-02-14T04:24:33.607Z,1.43
2017-02-14T04:25:33.202Z,1.39
2017-02-14T04:26:33.544Z,1.47
2017-02-14T04:27:33.149Z,1.49
2017-02-14T04:28:33.504Z,1.42
2017-02-14T04:29:33.468Z,1.43
2017-02-14T04:30:33.463Z,1.35
2017-02-14T04:31:33.084Z,1.38
2017-02-14T04:32:33.382Z,1.38
2017-02-14T04:33:33.363Z,1.38
2017-02-14T04:34:33.335Z,1.36
2017-02-14T04:35:33.321Z,1.35
2017-02-14T04:36:32.909Z,1.44
2017-02-14T04:37:33.259Z,1.32
2017-02-14T04:38:33.219Z,1.32
2017-02-14T04:39:33.203Z,1.31
2017-02-14T04:40:32.785Z,1.31
2017-02-14T04:41:32.753Z,1.31
2017-02-14T04:42:32.732Z,1.26
2017-02-14T04:43:33.135Z,1.28
2017-02-14T04:44:33.049Z,1.35
2017-02-14T04:45:33.039Z,1.21
2017-02-14T04:46:32.997Z,1.2
2017-02-14T04:47:32.594Z,1.2
2017-02-14T04:48:33.017Z,1.17
2017-02-14T04:49:32.922Z,1.16
2017-02-14T04:50:32.935Z,1.18
2017-02-14T04:51:32.870Z,1.14
2017-02-14T04:52:32.471Z,1.16
2017-02-14T04:53:32.800Z,1.14
2017-02-14T04:54:32.787Z,1.17
2017-02-14T04:55:32.749Z,1.16
2017-02-14T04:56:32.348Z,1.2
2017-02-14T04:57:32.696Z,1.17
2017-02-14T04:58:32.671Z,1.17
2017-02-14T04:59:32.692Z,1.17
2017-02-14T05:00:32.281Z,1.17
2017-02-14T05:01:32.208Z,1.11
2017-02-14T05:02:32.581Z,1.13
2017-02-14T05:03:32.531Z,1.1
2017-02-14T05:04:32.499Z,1.11
2017-02-14T05:05:31.700Z,1.18
2017-02-14T05:06:32.442Z,1.17
2017-02-14T05:07:32.424Z,1.04
2017-02-14T05:08:32.384Z,1.07
2017-02-14T05:09:31.982Z,1.07
2017-02-14T05:10:32.327Z,1.07
2017-02-14T05:11:32.305Z,1.13
2017-02-14T05:12:31.894Z,1.14
2017-02-14T05:13:32.295Z,1
2017-02-14T05:14:32.221Z,1.04
2017-02-14T05:15:31.419Z,1.06
2017-02-14T05:16:32.161Z,1.02
2017-02-14T05:17:32.132Z,0.96
2017-02-14T05:18:32.114Z,0.92
2017-02-14T05:19:32.077Z,0.98
2017-02-14T05:20:32.059Z,1.04
2017-02-14T05:21:32.025Z,1.07
2017-02-14T05:22:31.995Z,0.93
2017-02-14T05:23:32.012Z,0.98
2017-02-14T05:24:31.566Z,0.99
2017-02-14T05:25:31.527Z,0.82
2017-02-14T05:26:31.890Z,0.88
2017-02-14T05:27:31.478Z,0.89
2017-02-14T05:28:31.822Z,0.86
2017-02-14T05:29:31.813Z,0.93
2017-02-14T05:30:31.774Z,1
2017-02-14T05:31:31.744Z,0.95
2017-02-14T05:32:31.717Z,0.98
2017-02-14T05:33:31.363Z,0.86
2017-02-14T05:34:31.663Z,0.84
2017-02-14T05:35:31.676Z,0.89
2017-02-14T05:36:31.596Z,0.84
2017-02-14T05:37:31.643Z,0.86
2017-02-14T05:38:31.162Z,0.92
2017-02-14T05:39:31.531Z,0.92
2017-02-14T05:40:31.154Z,0.81
2017-02-14T05:41:31.515Z,0.9
2017-02-14T05:42:31.434Z,0.95
2017-02-14T05:43:31.419Z,0.84
2017-02-14T05:44:31.003Z,0.9
2017-02-14T05:45:31.354Z,0.92
2017-02-14T05:46:31.316Z,0.92
2017-02-14T05:47:31.295Z,0.89
2017-02-14T05:48:31.282Z,0.89
2017-02-14T05:49:31.235Z,0.84
2017-02-14T05:50:31.223Z,0.88
2017-02-14T05:51:30.800Z,0.89
2017-02-14T05:52:31.156Z,0.84
2017-02-14T05:53:31.113Z,0.75
2017-02-14T05:54:31.093Z,0.78
2017-02-14T05:55:31.069Z,0.75
2017-02-14T05:56:31.100Z,0.8
2017-02-14T05:57:31.040Z,0.8
2017-02-14T05:58:30.661Z,0.77
2017-02-14T05:59:30.576Z,0.71
2017-02-14T06:00:30.967Z,0.72
2017-02-14T06:01:30.918Z,0.77
2017-02-14T06:02:30.488Z,0.72
2017-02-14T06:03:30.850Z,0.78
2017-02-14T06:04:30.869Z,0.72
2017-02-14T06:05:30.415Z,0.74
2017-02-14T06:06:30.753Z,0.62
2017-02-14T06:07:30.777Z,0.64
2017-02-14T06:08:30.722Z,0.64
2017-02-14T06:09:30.675Z,0.72
2017-02-14T06:10:30.655Z,0.62
2017-02-14T06:11:30.281Z,0.59
2017-02-14T06:12:30.201Z,0.56
2017-02-14T06:13:30.620Z,0.63
2017-02-14T06:14:30.186Z,0.43
2017-02-14T06:15:30.522Z,0.49
2017-02-14T06:16:30.536Z,0.44
2017-02-14T06:17:30.458Z,0.48
2017-02-14T06:18:30.426Z,0.44
2017-02-14T06:19:30.396Z,0.37
2017-02-14T06:20:29.975Z,0.48
2017-02-14T06:21:30.347Z,0.41
2017-02-14T06:22:30.338Z,0.4
2017-02-14T06:23:30.281Z,0.37
2017-02-14T06:24:30.268Z,0.38
2017-02-14T06:25:30.222Z,0.3
2017-02-14T06:26:30.225Z,0.35
2017-02-14T06:27:30.165Z,0.35
2017-02-14T06:28:30.192Z,0.26
2017-02-14T06:29:30.111Z,0.35
2017-02-14T06:30:29.691Z,0.28
2017-02-14T06:31:30.073Z,0.31
2017-02-14T06:32:30.028Z,0.34
2017-02-14T06:33:30.006Z,0.38
2017-02-14T06:34:29.981Z,0.31
2017-02-14T06:35:29.942Z,0.34
2017-02-14T06:36:29.924Z,0.34
2017-02-14T06:37:29.506Z,0.38
2017-02-14T06:38:29.855Z,0.33
2017-02-14T06:39:29.837Z,0.31
2017-02-14T06:40:29.863Z,0.37
2017-02-14T06:41:29.767Z,0.37
2017-02-14T06:42:29.747Z,0.45
2017-02-14T06:43:29.730Z,0.33
2017-02-14T06:44:29.366Z,0.41
2017-02-14T06:45:29.675Z,0.38
2017-02-14T06:46:29.640Z,0.38
2017-02-14T06:47:29.646Z,0.33
2017-02-14T06:48:29.622Z,0.43
2017-02-14T06:49:29.176Z,0.37
2017-02-14T06:50:29.145Z,0.44
2017-02-14T06:51:29.486Z,0.4
2017-02-14T06:52:29.467Z,0.49
2017-02-14T06:53:29.429Z,0.43
2017-02-14T06:54:29.402Z,0.43
2017-02-14T06:55:29.384Z,0.43
2017-02-14T06:56:29.442Z,0.43
2017-02-14T06:57:28.925Z,0.44
2017-02-14T06:58:29.282Z,0.37
2017-02-14T06:59:29.260Z,0.4
2017-02-14T07:00:29.293Z,0.41
2017-02-14T07:01:29.223Z,0.43
2017-02-14T07:02:29.169Z,0.45
2017-02-14T07:03:29.149Z,0.49
2017-02-14T07:04:28.777Z,0.49
2017-02-14T07:05:28.715Z,0.44
2017-02-14T07:06:29.065Z,0.48
2017-02-14T07:07:29.027Z,0.44
2017-02-14T07:08:29.012Z,0.49
2017-02-14T07:09:28.587Z,0.4
2017-02-14T07:10:28.962Z,0.56
2017-02-14T07:11:28.565Z,0.56
2017-02-14T07:12:28.886Z,0.53
2017-02-14T07:13:28.893Z,0.56
2017-02-14T07:14:28.822Z,0.59
2017-02-14T07:15:28.799Z,0.63
2017-02-14T07:16:28.383Z,0.62
2017-02-14T07:17:28.748Z,0.63
2017-02-14T07:18:28.349Z,0.78
2017-02-14T07:19:28.754Z,0.71
2017-02-14T07:20:28.727Z,0.78
2017-02-14T07:21:28.649Z,0.77
2017-02-14T07:22:28.620Z,0.9
2017-02-14T07:23:28.573Z,0.84
2017-02-14T07:24:28.563Z,0.93
2017-02-14T07:25:28.527Z,1.06
2017-02-14T07:26:28.545Z,1.13
2017-02-14T07:27:28.464Z,1.26
2017-02-14T07:28:28.439Z,1.53
2017-02-14T07:29:28.414Z,1.83
2017-02-14T07:30:28.378Z,2.15
2017-02-14T07:31:28.375Z,2.56
2017-02-14T07:32:28.900Z,2.84
2017-02-14T07:33:28.313Z,3.13
2017-02-14T07:34:28.286Z,3.49
2017-02-14T07:35:28.258Z,3.56
2017-02-14T07:36:27.460Z,3.68
2017-02-14T07:37:28.203Z,3.89
2017-02-14T07:38:28.182Z,4.16
2017-02-14T07:39:28.167Z,4.36
2017-02-14T07:40:27.740Z,4.53
2017-02-14T07:41:27.732Z,4.74
2017-02-14T07:42:28.083Z,4.99
2017-02-14T07:43:28.077Z,5.09
2017-02-14T07:44:28.030Z,5.23
2017-02-14T07:45:28.005Z,5.41
2017-02-14T07:46:27.976Z,5.62
2017-02-14T07:47:27.976Z,5.92
2017-02-14T07:48:27.924Z,6.13
2017-02-14T07:49:27.907Z,6.3
2017-02-14T07:50:27.883Z,6.32
2017-02-14T07:51:27.877Z,6.35
2017-02-14T07:52:27.838Z,6.53
2017-02-14T07:53:27.433Z,6.69
2017-02-14T07:54:27.408Z,6.78
2017-02-14T07:55:27.780Z,6.89
2017-02-14T07:56:27.742Z,6.9
2017-02-14T07:57:27.807Z,7.21
2017-02-14T07:58:27.712Z,7.37
2017-02-14T07:59:26.900Z,7.71
2017-02-14T08:00:27.275Z,7.69
2017-02-14T08:01:27.647Z,7.51
2017-02-14T08:02:27.614Z,7.63
2017-02-14T08:03:27.599Z,7.82
2017-02-14T08:04:27.555Z,7.85
2017-02-14T08:05:27.536Z,7.82
2017-02-14T08:06:27.157Z,7.82
2017-02-14T08:07:27.491Z,8.02
2017-02-14T08:08:27.504Z,8.24
2017-02-14T08:09:27.081Z,8.32
2017-02-14T08:10:27.040Z,8.37
2017-02-14T08:11:27.403Z,8.5
2017-02-14T08:12:27.386Z,8.54
2017-02-14T08:13:27.361Z,8.79
2017-02-14T08:14:27.390Z,8.96
2017-02-14T08:15:26.954Z,8.98
2017-02-14T08:16:27.315Z,8.88
2017-02-14T08:17:27.275Z,8.96
2017-02-14T08:18:27.256Z,8.89
2017-02-14T08:19:27.303Z,8.85
2017-02-14T08:20:27.214Z,8.88
2017-02-14T08:21:27.189Z,8.82
2017-02-14T08:22:27.180Z,8.73
2017-02-14T08:23:26.776Z,8.8
2017-02-14T08:24:26.745Z,8.97
2017-02-14T08:25:27.117Z,9.03
2017-02-14T08:26:27.088Z,9.01
2017-02-14T08:27:26.694Z,8.93
2017-02-14T08:28:27.040Z,8.97
2017-02-14T08:29:27.028Z,9
2017-02-14T08:30:26.996Z,9.2
2017-02-14T08:31:26.989Z,9.22
2017-02-14T08:32:26.983Z,9.37
2017-02-14T08:33:26.930Z,9.37
2017-02-14T08:34:26.543Z,9.19
2017-02-14T08:35:26.956Z,9.06
2017-02-14T08:36:26.495Z,9.08
2017-02-14T08:37:26.493Z,9.12
2017-02-14T08:38:26.466Z,9.1
2017-02-14T08:39:26.819Z,9.12
2017-02-14T08:40:26.411Z,9.1
2017-02-14T08:41:26.862Z,9.06
2017-02-14T08:42:26.401Z,9.08
2017-02-14T08:43:26.367Z,8.85
2017-02-14T08:44:26.620Z,8.79
2017-02-14T08:45:26.681Z,8.6
2017-02-14T08:46:26.668Z,8.65
2017-02-14T08:47:26.659Z,8.75
2017-02-14T08:48:26.666Z,8.83
2017-02-14T08:49:26.609Z,8.8
2017-02-14T08:50:26.608Z,8.71
2017-02-14T08:51:26.245Z,8.82
2017-02-14T08:52:26.583Z,8.7
2017-02-14T08:53:26.191Z,8.67
2017-02-14T08:54:26.492Z,8.7
2017-02-14T08:55:26.481Z,8.78
2017-02-14T08:56:26.095Z,8.79
2017-02-14T08:57:26.458Z,8.85
2017-02-14T08:58:26.499Z,9.04
2017-02-14T08:59:26.394Z,9.12
2017-02-14T09:00:26.000Z,9
2017-02-14T09:01:26.349Z,8.7
2017-02-14T09:02:26.331Z,8.43
2017-02-14T09:03:26.313Z,7.96
2017-02-14T09:04:26.304Z,7.51
2017-02-14T09:05:25.943Z,7.23
2017-02-14T09:06:25.906Z,6.94
2017-02-14T09:07:25.852Z,6.82
2017-02-14T09:08:26.224Z,6.69
2017-02-14T09:09:26.197Z,6.54
2017-02-14T09:10:25.793Z,6.28
2017-02-14T09:11:25.782Z,6.03
2017-02-14T09:12:26.139Z,5.93
2017-02-14T09:13:25.705Z,5.88
2017-02-14T09:14:26.082Z,5.81
2017-02-14T09:15:26.048Z,5.73
2017-02-14T09:16:26.027Z,5.7
2017-02-14T09:17:25.630Z,5.73
2017-02-14T09:18:25.987Z,5.67
2017-02-14T09:19:25.973Z,5.73
2017-02-14T09:20:25.941Z,5.67
2017-02-14T09:21:25.918Z,5.66
2017-02-14T09:22:25.508Z,5.75
2017-02-14T09:23:25.883Z,5.75
2017-02-14T09:24:25.861Z,5.83
2017-02-14T09:25:25.430Z,5.87
2017-02-14T09:26:25.423Z,5.73
2017-02-14T09:27:25.790Z,5.75
2017-02-14T09:28:25.787Z,5.69
2017-02-14T09:29:25.355Z,5.69
2017-02-14T09:30:25.314Z,5.7
2017-02-14T09:31:25.683Z,5.67
2017-02-14T09:32:25.664Z,5.77
2017-02-14T09:33:25.262Z,5.66
2017-02-14T09:34:25.626Z,5.7
2017-02-14T09:35:25.222Z,5.66
2017-02-14T09:36:25.565Z,5.81
2017-02-14T09:37:25.153Z,5.84
2017-02-14T09:38:25.558Z,5.87
2017-02-14T09:39:25.106Z,6.05
2017-02-14T09:40:25.515Z,6.27
2017-02-14T09:41:25.060Z,6.25
2017-02-14T09:42:25.036Z,6.25
2017-02-14T09:43:25.393Z,6.19
2017-02-14T09:44:25.377Z,6.08
2017-02-14T09:45:25.351Z,6.06
2017-02-14T09:46:25.321Z,5.99
2017-02-14T09:47:25.312Z,5.95
2017-02-14T09:48:25.285Z,5.88
2017-02-14T09:49:25.572Z,5.93
2017-02-14T09:50:25.232Z,5.87
2017-02-14T09:51:25.217Z,5.77
2017-02-14T09:52:25.190Z,5.77
2017-02-14T09:53:24.770Z,5.73
2017-02-14T09:54:25.131Z,5.7
2017-02-14T09:55:25.112Z,5.81
2017-02-14T09:56:24.719Z,5.92
2017-02-14T09:57:24.687Z,5.85
2017-02-14T09:58:24.665Z,5.87
2017-02-14T09:59:25.006Z,5.85
2017-02-14T10:00:24.617Z,5.87
2017-02-14T10:01:24.583Z,5.98
2017-02-14T10:02:24.933Z,5.9
2017-02-14T10:03:24.919Z,6.02
2017-02-14T10:04:24.511Z,5.95
2017-02-14T10:05:24.879Z,5.95
2017-02-14T10:06:24.846Z,5.93
2017-02-14T10:07:24.823Z,5.99
2017-02-14T10:08:24.420Z,5.85
2017-02-14T10:09:24.793Z,5.85
2017-02-14T10:10:24.372Z,5.95
2017-02-14T10:11:24.777Z,5.98
2017-02-14T10:12:24.326Z,5.92
2017-02-14T10:13:23.920Z,5.96
2017-02-14T10:14:24.696Z,5.96
2017-02-14T10:15:24.249Z,5.99
2017-02-14T10:16:24.708Z,6.02
2017-02-14T10:17:24.578Z,6.02
2017-02-14T10:18:24.770Z,6.02
2017-02-14T10:19:24.156Z,6.03
2017-02-14T10:20:24.507Z,6.05
2017-02-14T10:21:24.488Z,6.06
2017-02-14T10:22:24.465Z,6.14
2017-02-14T10:23:24.437Z,6.16
2017-02-14T10:24:24.432Z,6.05
2017-02-14T10:25:24.390Z,6.08
2017-02-14T10:26:24.360Z,6.13
2017-02-14T10:27:23.949Z,6.05
2017-02-14T10:28:24.317Z,6.06
2017-02-14T10:29:24.303Z,6.17
2017-02-14T10:30:23.935Z,6.19
2017-02-14T10:31:24.270Z,6.24
2017-02-14T10:32:24.234Z,6.28
2017-02-14T10:33:24.547Z,6.2
2017-02-14T10:34:24.187Z,6.25
2017-02-14T10:35:24.154Z,6.35
2017-02-14T10:36:24.187Z,6.32
2017-02-14T10:37:24.111Z,6.33
2017-02-14T10:38:23.700Z,6.32
2017-02-14T10:39:24.063Z,6.32
2017-02-14T10:40:23.646Z,6.35
2017-02-14T10:41:23.630Z,6.4
2017-02-14T10:42:23.973Z,6.38
2017-02-14T10:43:23.951Z,6.46
2017-02-14T10:44:23.617Z,6.46
2017-02-14T10:45:23.903Z,6.57
2017-02-14T10:46:23.503Z,6.46
2017-02-14T10:47:23.867Z,6.5
2017-02-14T10:48:23.455Z,6.48
2017-02-14T10:49:23.433Z,6.55
2017-02-14T10:50:23.801Z,6.55
2017-02-14T10:51:23.429Z,6.58
2017-02-14T10:52:23.751Z,6.55
2017-02-14T10:53:23.714Z,6.55
2017-02-14T10:54:23.303Z,6.57
2017-02-14T10:55:22.899Z,6.54
2017-02-14T10:56:23.645Z,6.58
2017-02-14T10:57:23.619Z,6.57
2017-02-14T10:58:23.214Z,6.61
2017-02-14T10:59:23.191Z,6.68
2017-02-14T11:00:23.553Z,6.6
2017-02-14T11:01:23.586Z,6.64
2017-02-14T11:02:23.503Z,6.6
2017-02-14T11:03:23.532Z,6.72
2017-02-14T11:04:23.516Z,6.68
2017-02-14T11:05:23.053Z,6.63
2017-02-14T11:06:23.453Z,6.76
2017-02-14T11:07:23.381Z,6.75
2017-02-14T11:08:23.356Z,6.79
2017-02-14T11:09:23.001Z,6.76
2017-02-14T11:10:22.928Z,6.81
2017-02-14T11:11:23.286Z,6.78
2017-02-14T11:12:22.868Z,6.71
2017-02-14T11:13:23.532Z,6.86
2017-02-14T11:14:23.201Z,6.87
2017-02-14T11:15:23.204Z,6.9
2017-02-14T11:16:23.172Z,6.97
2017-02-14T11:17:22.752Z,6.9
2017-02-14T11:18:22.735Z,6.89
2017-02-14T11:19:23.136Z,6.86
2017-02-14T11:20:23.125Z,6.97
2017-02-14T11:21:23.032Z,6.99
2017-02-14T11:22:23.017Z,7
2017-02-14T11:23:22.991Z,7.07
2017-02-14T11:24:22.582Z,7.05
2017-02-14T11:25:22.587Z,7.04
2017-02-14T11:26:22.535Z,7.12
2017-02-14T11:27:22.894Z,7.07
2017-02-14T11:28:22.499Z,7.12
2017-02-14T11:29:22.894Z,7.15
2017-02-14T11:30:22.551Z,7.24
2017-02-14T11:31:22.820Z,7.24
2017-02-14T11:32:22.805Z,7.29
2017-02-14T11:33:22.810Z,7.26
2017-02-14T11:34:22.346Z,7.24
2017-02-14T11:35:22.719Z,7.33
2017-02-14T11:36:22.301Z,7.34
2017-02-14T11:37:22.672Z,7.36
2017-02-14T11:38:22.653Z,7.42
2017-02-14T11:39:22.624Z,7.45
2017-02-14T11:40:22.603Z,7.45
2017-02-14T11:41:22.572Z,7.5
2017-02-14T11:42:22.543Z,7.5
2017-02-14T11:43:22.529Z,7.52
2017-02-14T11:44:22.491Z,7.5
2017-02-14T11:45:22.087Z,7.45
2017-02-14T11:46:22.500Z,7.5
2017-02-14T11:47:22.427Z,7.52
2017-02-14T11:48:22.018Z,7.63
2017-02-14T11:49:22.374Z,7.51
2017-02-14T11:50:22.346Z,7.67
2017-02-14T11:51:22.324Z,7.69
2017-02-14T11:52:21.915Z,7.73
2017-02-14T11:53:22.288Z,7.69
2017-02-14T11:54:21.886Z,7.67
2017-02-14T11:55:21.904Z,7.77
2017-02-14T11:56:22.313Z,7.74
2017-02-14T11:57:21.850Z,7.82
2017-02-14T11:58:21.784Z,7.86
2017-02-14T11:59:22.142Z,7.89
2017-02-14T12:00:21.740Z,7.91
2017-02-14T12:01:22.090Z,7.91
2017-02-14T12:02:22.068Z,7.88
2017-02-14T12:03:21.675Z,7.86
2017-02-14T12:04:22.025Z,7.88
2017-02-14T12:05:22.017Z,7.92
2017-02-14T12:06:22.031Z,7.94
2017-02-14T12:07:21.575Z,7.94
2017-02-14T12:08:21.926Z,8.02
2017-02-14T12:09:21.903Z,8.02
2017-02-14T12:10:21.903Z,8.06
2017-02-14T12:11:21.863Z,8
2017-02-14T12:12:21.900Z,7.95
2017-02-14T12:13:21.823Z,8.14
2017-02-14T12:14:21.787Z,8.02
2017-02-14T12:15:21.816Z,8.18
2017-02-14T12:16:21.810Z,8.09
2017-02-14T12:17:21.342Z,8.24
2017-02-14T12:18:21.718Z,8.22
2017-02-14T12:19:21.673Z,8.25
2017-02-14T12:20:21.646Z,8.24
2017-02-14T12:21:21.631Z,8.37
2017-02-14T12:22:21.608Z,8.24
2017-02-14T12:23:21.647Z,8.27
2017-02-14T12:24:21.555Z,8.32
2017-02-14T12:25:21.547Z,8.29
2017-02-14T12:26:21.543Z,8.31
2017-02-14T12:27:21.549Z,8.37
2017-02-14T12:28:21.466Z,8.5
2017-02-14T12:29:21.736Z,8.43
2017-02-14T12:30:21.416Z,8.47
2017-02-14T12:31:21.016Z,8.46
2017-02-14T12:32:21.377Z,8.5
2017-02-14T12:33:20.974Z,8.49
2017-02-14T12:34:21.335Z,8.49
2017-02-14T12:35:20.970Z,8.55
2017-02-14T12:36:21.277Z,8.5
2017-02-14T12:37:21.255Z,8.52
2017-02-14T12:38:21.234Z,8.5
2017-02-14T12:39:21.213Z,8.55
2017-02-14T12:40:21.232Z,8.57
2017-02-14T12:41:20.784Z,8.57
2017-02-14T12:42:21.253Z,8.55
2017-02-14T12:43:20.749Z,8.49
2017-02-14T12:44:21.103Z,8.47
2017-02-14T12:45:20.711Z,8.54
2017-02-14T12:46:21.051Z,8.57
2017-02-14T12:47:21.040Z,8.6
2017-02-14T12:48:20.616Z,8.65
2017-02-14T12:49:21.025Z,8.67
2017-02-14T12:50:20.958Z,8.68
2017-02-14T12:51:20.940Z,8.68
2017-02-14T12:52:20.911Z,8.65
2017-02-14T12:53:20.892Z,8.79
2017-02-14T12:54:20.910Z,8.68
2017-02-14T12:55:20.483Z,8.68
2017-02-14T12:56:20.829Z,8.82
2017-02-14T12:57:20.814Z,8.76
2017-02-14T12:58:20.764Z,8.78
2017-02-14T12:59:20.356Z,8.8
2017-02-14T13:00:20.719Z,8.85
2017-02-14T13:01:20.323Z,8.89
2017-02-14T13:02:20.689Z,8.86
2017-02-14T13:03:19.892Z,8.91
2017-02-14T13:04:20.666Z,8.94
2017-02-14T13:05:20.614Z,8.88
2017-02-14T13:06:20.637Z,8.98
2017-02-14T13:07:20.568Z,9.04
2017-02-14T13:08:20.538Z,9.03
2017-02-14T13:09:34.696Z,9.06
2017-02-14T13:10:20.491Z,9.08
2017-02-14T13:11:20.486Z,9.04
2017-02-14T13:12:20.124Z,9.13
2017-02-14T13:13:20.446Z,9
2017-02-14T13:14:20.409Z,8.97
2017-02-14T13:15:20.010Z,9.04
2017-02-14T13:16:19.969Z,9.06
2017-02-14T13:17:20.386Z,9.06
2017-02-14T13:18:20.322Z,9.04
2017-02-14T13:19:20.286Z,9.06
2017-02-14T13:20:20.266Z,9.03
2017-02-14T13:21:19.859Z,9.15